Time;durP1;ratioP1;P1;durP2;ratioP2;P2;SDS_P1;SDS_P2;PMS_P1;PMS_P2;Temp;Humidity;BMP_temperature;BMP_pressure;BME280_temperature;BME280_humidity;BME280_pressure;Samples;Min_cycle;Max_cycle;Signal;HPM_P1;HPM_P2
2021/08/29 00:01:55;;;;;;;2.73;2.47;;;;;;;10.87;100.00;96007.22;5035899;28;20955;-80
2021/08/29 00:04:20;;;;;;;2.70;1.93;;;;;;;10.87;100.00;96002.03;5034885;28;20468;-81
2021/08/29 00:06:47;;;;;;;3.37;2.00;;;;;;;10.84;100.00;96003.03;5035693;28;20442;-80
2021/08/29 00:09:13;;;;;;;2.80;1.73;;;;;;;10.88;100.00;96004.53;5034665;28;20441;-80
2021/08/29 00:11:38;;;;;;;2.57;1.83;;;;;;;10.79;100.00;96007.69;5034597;28;21003;-80
2021/08/29 00:14:03;;;;;;;4.00;2.10;;;;;;;10.77;100.00;96004.34;5034907;28;20460;-81
2021/08/29 00:16:29;;;;;;;3.15;2.13;;;;;;;10.75;100.00;96001.00;5035664;28;20912;-80
2021/08/29 00:18:55;;;;;;;2.67;2.47;;;;;;;10.74;100.00;96001.91;5034805;28;20423;-80
2021/08/29 00:21:20;;;;;;;3.47;2.05;;;;;;;10.71;100.00;95994.31;5036570;28;20407;-80
2021/08/29 00:23:47;;;;;;;3.00;2.30;;;;;;;10.72;100.00;96001.19;5034497;28;20555;-80
2021/08/29 00:26:12;;;;;;;2.60;2.15;;;;;;;10.73;100.00;95989.91;5034951;28;20457;-80
2021/08/29 00:28:38;;;;;;;9.17;2.70;;;;;;;10.79;100.00;95999.03;5034935;28;20933;-81
2021/08/29 00:31:03;;;;;;;3.50;2.57;;;;;;;10.80;100.00;95996.38;5034398;28;21108;-80
2021/08/29 00:33:29;;;;;;;2.53;2.33;;;;;;;10.80;100.00;95996.38;5035328;28;20515;-81
2021/08/29 00:35:55;;;;;;;2.60;2.40;;;;;;;10.87;100.00;95997.69;5034314;28;20426;-80
2021/08/29 00:38:21;;;;;;;2.58;2.05;;;;;;;10.93;100.00;95990.44;5034864;28;20427;-81
2021/08/29 00:40:48;;;;;;;2.60;2.20;;;;;;;10.96;100.00;95985.09;5034760;28;20419;-81
2021/08/29 00:43:14;;;;;;;3.53;2.20;;;;;;;11.00;100.00;95986.56;5034382;28;20932;-80
2021/08/29 00:45:39;;;;;;;2.25;1.90;;;;;;;10.97;100.00;95986.75;5036182;28;20427;-81
2021/08/29 00:48:06;;;;;;;2.60;2.13;;;;;;;10.88;100.00;95988.97;5034804;28;20419;-81
2021/08/29 00:50:32;;;;;;;4.05;2.17;;;;;;;10.89;100.00;95985.44;5036539;28;20422;-81
2021/08/29 00:52:57;;;;;;;2.80;1.70;;;;;;;10.95;100.00;95981.66;5034656;28;20419;-81
2021/08/29 00:55:22;;;;;;;2.20;2.00;;;;;;;10.95;100.00;95976.47;5034068;28;20411;-81
2021/08/29 00:57:49;;;;;;;2.53;2.33;;;;;;;10.90;100.00;95974.19;5034301;28;20435;-81
2021/08/29 01:00:15;;;;;;;3.73;2.53;;;;;;;10.92;100.00;95979.25;5033961;28;20450;-81
2021/08/29 01:02:43;;;;;;;2.45;2.22;;;;;;;10.98;100.00;95980.66;5035784;28;20419;-81
2021/08/29 01:05:11;;;;;;;3.45;2.60;;;;;;;10.94;100.00;95968.78;5034636;28;21000;-81
2021/08/29 01:07:43;;;;;;;2.97;2.08;;;;;;;10.97;100.00;95966.00;5034133;28;20415;-81
2021/08/29 01:10:14;;;;;;;3.28;2.50;;;;;;;10.81;100.00;95964.34;5034411;28;20422;-81
2021/08/29 01:12:44;;;;;;;3.15;1.90;;;;;;;10.87;100.00;95970.94;5034317;28;20431;-81
2021/08/29 01:15:12;;;;;;;3.38;2.40;;;;;;;10.93;100.00;95967.13;5038311;28;20774;-81
2021/08/29 01:17:38;;;;;;;2.28;2.08;;;;;;;10.93;100.00;95961.94;5045043;28;20419;-81
2021/08/29 01:20:13;;;;;;;3.88;2.03;;;;;;;10.96;100.00;95964.34;5040626;28;20422;-81
2021/08/29 01:22:40;;;;;;;4.82;2.78;;;;;;;10.95;100.00;95968.72;5043325;28;20415;-81
2021/08/29 01:25:11;;;;;;;2.58;2.38;;;;;;;10.95;100.00;95966.13;5041264;28;20480;-81
2021/08/29 01:27:45;;;;;;;2.63;2.25;;;;;;;10.94;100.00;95961.88;5038983;28;20557;-81
2021/08/29 01:30:12;;;;;;;2.38;1.90;;;;;;;11.08;100.00;95963.59;5039993;28;20430;-81
2021/08/29 01:32:40;;;;;;;3.77;2.10;;;;;;;11.08;100.00;95961.00;5037512;28;20781;-81
2021/08/29 01:35:06;;;;;;;3.05;1.98;;;;;;;10.96;100.00;95959.16;5036365;28;20416;-81
2021/08/29 01:37:32;;;;;;;3.70;2.10;;;;;;;10.92;100.00;95958.53;5037754;28;20425;-81
2021/08/29 01:39:59;;;;;;;2.00;1.77;;;;;;;10.92;100.00;95950.75;5036448;28;20422;-81
2021/08/29 01:42:25;;;;;;;3.03;2.55;;;;;;;10.90;100.00;95955.19;5037422;28;20414;-81
2021/08/29 01:44:51;;;;;;;2.63;2.28;;;;;;;10.94;100.00;95946.31;5036556;28;20430;-81
2021/08/29 01:47:18;;;;;;;3.23;2.40;;;;;;;10.95;100.00;95950.56;5036048;28;20423;-81
2021/08/29 01:49:45;;;;;;;2.20;2.00;;;;;;;10.98;100.00;95947.81;5036878;28;20509;-81
2021/08/29 01:52:13;;;;;;;2.77;2.43;;;;;;;11.04;100.00;95947.41;5035887;28;20472;-81
2021/08/29 01:54:38;;;;;;;3.25;2.42;;;;;;;11.04;100.00;95942.22;5034963;28;20481;-81
2021/08/29 01:57:13;;;;;;;2.88;2.55;;;;;;;11.07;100.00;95947.22;5036744;28;20423;-81
2021/08/29 01:59:39;;;;;;;2.95;2.17;;;;;;;11.07;100.00;95946.38;5034474;28;20425;-81
2021/08/29 02:02:05;;;;;;;3.22;2.33;;;;;;;11.08;100.00;95943.69;5035124;28;20828;-81
2021/08/29 02:04:33;;;;;;;3.03;2.30;;;;;;;11.07;100.00;95930.84;5038002;28;20415;-81
2021/08/29 02:07:07;;;;;;;2.42;2.20;;;;;;;11.09;100.00;95929.00;5037537;28;20415;-81
2021/08/29 02:09:34;;;;;;;2.50;2.15;;;;;;;11.10;100.00;95926.28;5031267;28;20418;-81
2021/08/29 02:12:00;;;;;;;2.70;2.23;;;;;;;11.12;100.00;95931.38;5031930;28;20425;-80
2021/08/29 02:14:31;;;;;;;2.85;2.33;;;;;;;11.10;100.00;95930.66;5030836;28;20446;-80
2021/08/29 02:16:58;;;;;;;3.08;2.10;;;;;;;11.07;100.00;95931.66;5030302;28;20510;-80
2021/08/29 02:19:27;;;;;;;3.28;2.40;;;;;;;11.06;100.00;95927.41;5030754;28;20412;-81
2021/08/29 02:21:54;;;;;;;2.50;2.30;;;;;;;11.06;100.00;95929.19;5032115;28;20451;-81
2021/08/29 02:24:22;;;;;;;2.28;2.08;;;;;;;11.05;100.00;95928.34;5032085;28;20469;-81
2021/08/29 02:26:48;;;;;;;3.15;2.22;;;;;;;11.05;100.00;95925.75;5031894;28;20905;-81
2021/08/29 02:29:14;;;;;;;2.85;2.25;;;;;;;11.05;100.00;95927.50;5032726;28;20434;-81
2021/08/29 02:31:40;;;;;;;3.17;2.55;;;;;;;10.94;100.00;95917.81;5032691;28;20407;-81
2021/08/29 02:34:05;;;;;;;2.70;2.05;;;;;;;11.00;100.00;95920.00;5030913;28;20909;-81
2021/08/29 02:36:31;;;;;;;3.10;2.22;;;;;;;10.90;100.00;95918.91;5030785;28;20493;-81
2021/08/29 02:39:01;;;;;;;2.50;2.17;;;;;;;10.89;100.00;95910.31;5030932;28;20442;-81
2021/08/29 02:41:27;;;;;;;3.35;2.08;;;;;;;10.83;100.00;95915.06;5032423;28;20473;-81
2021/08/29 02:43:54;;;;;;;2.67;2.10;;;;;;;10.84;100.00;95914.13;5032649;28;20402;-81
2021/08/29 02:46:20;;;;;;;7.50;2.20;;;;;;;10.91;100.00;95915.41;5032069;28;20429;-81
2021/08/29 02:48:46;;;;;;;3.13;2.00;;;;;;;10.89;100.00;95915.50;5032089;28;20522;-81
2021/08/29 02:51:12;;;;;;;2.00;1.80;;;;;;;10.93;100.00;95910.13;5033205;28;20417;-81
2021/08/29 02:53:39;;;;;;;2.80;2.03;;;;;;;10.93;100.00;95908.34;5031663;28;20419;-81
2021/08/29 02:56:07;;;;;;;4.05;2.47;;;;;;;10.92;100.00;95918.84;5032587;28;20418;-81
2021/08/29 02:58:34;;;;;;;2.08;1.80;;;;;;;10.95;100.00;95914.28;5031746;28;20782;-81
2021/08/29 03:01:00;;;;;;;2.13;1.92;;;;;;;10.94;100.00;95911.78;5031666;28;20526;-81
2021/08/29 03:03:25;;;;;;;4.90;2.03;;;;;;;10.95;100.00;95910.88;5031398;28;20514;-81
2021/08/29 03:05:51;;;;;;;2.60;2.30;;;;;;;10.90;100.00;95911.13;5030982;28;20423;-81
2021/08/29 03:08:17;;;;;;;3.15;2.40;;;;;;;10.91;100.00;95902.47;5031828;28;20510;-81
2021/08/29 03:10:43;;;;;;;2.40;2.10;;;;;;;10.92;100.00;95906.69;5031593;28;20759;-81
2021/08/29 03:13:13;;;;;;;3.03;2.20;;;;;;;10.95;100.00;95905.69;5031802;28;20499;-81
2021/08/29 03:15:39;;;;;;;2.63;2.03;;;;;;;10.88;100.00;95898.28;5030873;28;20434;-81
2021/08/29 03:18:04;;;;;;;3.37;2.27;;;;;;;10.86;100.00;95900.16;5031160;28;20423;-81
2021/08/29 03:20:30;;;;;;;2.17;1.98;;;;;;;10.85;100.00;95901.06;5031535;28;20427;-81
2021/08/29 03:22:56;;;;;;;2.83;2.15;;;;;;;10.86;100.00;95900.16;5032067;28;20454;-81
2021/08/29 03:25:22;;;;;;;2.85;2.10;;;;;;;10.90;100.00;95893.00;5031005;28;20920;-81
2021/08/29 03:27:47;;;;;;;2.90;2.20;;;;;;;10.90;100.00;95888.66;5031506;28;20469;-81
2021/08/29 03:30:14;;;;;;;3.17;2.20;;;;;;;10.89;100.00;95899.13;5031606;28;20427;-81
2021/08/29 03:32:42;;;;;;;2.10;1.90;;;;;;;10.93;100.00;95895.41;5031342;28;20443;-81
2021/08/29 03:35:11;;;;;;;3.38;2.30;;;;;;;10.79;100.00;95898.88;5032687;28;20438;-80
2021/08/29 03:37:39;;;;;;;2.13;1.80;;;;;;;10.85;100.00;95895.88;5033155;28;20426;-81
2021/08/29 03:40:06;;;;;;;2.33;2.03;;;;;;;10.88;100.00;95895.69;5031480;28;20843;-81
2021/08/29 03:42:33;;;;;;;2.15;1.90;;;;;;;10.95;100.00;95893.56;5031197;28;20472;-81
2021/08/29 03:44:59;;;;;;;2.42;2.22;;;;;;;10.95;100.00;95888.38;5030915;28;20434;-81
2021/08/29 03:47:27;;;;;;;2.30;2.00;;;;;;;10.96;100.00;95891.81;5030914;28;20498;-80
2021/08/29 03:49:53;;;;;;;3.53;2.10;;;;;;;10.95;100.00;95887.56;5033412;28;20781;-81
2021/08/29 03:52:19;;;;;;;2.00;1.80;;;;;;;10.96;100.00;95884.03;5031649;28;20477;-81
2021/08/29 03:54:46;;;;;;;3.55;2.15;;;;;;;10.97;100.00;95883.09;5031468;28;20480;-81
2021/08/29 03:57:12;;;;;;;2.47;2.20;;;;;;;10.95;100.00;95875.41;5032567;28;20494;-81
2021/08/29 03:59:37;;;;;;;2.10;1.90;;;;;;;10.87;100.00;95875.91;5037389;28;20446;-81
2021/08/29 04:02:04;;;;;;;2.65;2.17;;;;;;;10.83;100.00;95876.19;5042374;28;20423;-81
2021/08/29 04:04:32;;;;;;;1.73;1.63;;;;;;;10.84;100.00;95870.06;5039358;28;20466;-81
2021/08/29 04:07:01;;;;;;;3.50;2.30;;;;;;;10.82;100.00;95867.56;5040260;28;20514;-81
2021/08/29 04:09:29;;;;;;;2.65;2.38;;;;;;;10.72;100.00;95871.69;5039359;28;20427;-81
2021/08/29 04:11:55;;;;;;;2.10;1.90;;;;;;;10.75;100.00;95865.44;5039458;28;20419;-81
2021/08/29 04:14:21;;;;;;;2.33;1.92;;;;;;;10.77;100.00;95859.25;5039742;28;20427;-81
2021/08/29 04:16:48;;;;;;;1.83;1.67;;;;;;;10.84;100.00;95860.53;5037990;28;20419;-81
2021/08/29 04:19:15;;;;;;;2.60;1.90;;;;;;;10.89;100.00;95858.47;5037547;28;20921;-81
2021/08/29 04:21:42;;;;;;;1.77;1.67;;;;;;;10.91;100.00;95855.81;5038037;28;20423;-81
2021/08/29 04:24:08;;;;;;;2.67;1.95;;;;;;;10.78;100.00;95853.13;5038053;28;20792;-81
2021/08/29 04:26:34;;;;;;;2.60;2.40;;;;;;;10.80;100.00;95848.72;5037309;28;20422;-81
2021/08/29 04:29:00;;;;;;;2.20;2.00;;;;;;;10.84;100.00;95842.41;5038746;28;20411;-81
2021/08/29 04:31:29;;;;;;;2.13;1.93;;;;;;;10.84;100.00;95839.81;5038358;28;20415;-81
2021/08/29 04:33:55;;;;;;;2.33;1.90;;;;;;;10.87;100.00;95847.41;5038417;28;20415;-81
2021/08/29 04:36:20;;;;;;;2.20;2.00;;;;;;;10.87;100.00;95851.75;5039291;28;20927;-81
2021/08/29 04:38:47;;;;;;;2.70;2.27;;;;;;;10.84;100.00;95849.34;5036911;28;20423;-81
2021/08/29 04:41:13;;;;;;;2.73;2.03;;;;;;;10.78;100.00;95847.13;5037326;28;20434;-79
2021/08/29 04:43:39;;;;;;;2.80;2.00;;;;;;;10.80;100.00;95853.88;5038459;28;20415;-80
2021/08/29 04:46:04;;;;;;;3.07;2.27;;;;;;;10.89;100.00;95850.72;5035968;28;20457;-80
2021/08/29 04:48:30;;;;;;;2.17;1.98;;;;;;;10.95;100.00;95852.09;5038675;28;20426;-80
2021/08/29 04:50:55;;;;;;;2.40;2.20;;;;;;;11.01;100.00;95848.28;5038117;28;20415;-80
2021/08/29 04:53:21;;;;;;;2.30;2.10;;;;;;;10.96;100.00;95855.53;5037805;28;20415;-80
2021/08/29 04:55:48;;;;;;;2.23;2.03;;;;;;;10.93;100.00;95847.94;5035742;28;20426;-80
2021/08/29 04:58:13;;;;;;;4.80;2.00;;;;;;;10.76;100.00;95843.81;5035830;28;20527;-80
2021/08/29 05:00:38;;;;;;;3.73;2.23;;;;;;;10.70;100.00;95841.59;5035609;28;20458;-80
2021/08/29 05:03:04;;;;;;;3.03;2.00;;;;;;;10.68;100.00;95841.72;5035698;28;20407;-79
2021/08/29 05:05:29;;;;;;;2.53;1.93;;;;;;;10.67;100.00;95845.22;5035544;28;20966;-80
2021/08/29 05:07:55;;;;;;;2.90;2.08;;;;;;;10.67;100.00;95842.63;5039468;28;20925;-79
2021/08/29 05:10:20;;;;;;;1.95;1.83;;;;;;;10.71;100.00;95849.25;5039923;28;20429;-80
2021/08/29 05:12:47;;;;;;;2.27;1.97;;;;;;;10.65;100.00;95845.31;5033931;28;20415;-78
2021/08/29 05:15:12;;;;;;;2.10;1.90;;;;;;;10.62;100.00;95845.50;5031739;28;20422;-79
2021/08/29 05:17:38;;;;;;;3.57;1.97;;;;;;;10.62;100.00;95852.44;5031845;28;20419;-79
2021/08/29 05:20:05;;;;;;;1.93;1.73;;;;;;;10.63;100.00;95856.69;5032035;28;20423;-80
2021/08/29 05:22:30;;;;;;;2.23;2.00;;;;;;;10.58;100.00;95851.78;5032026;28;20423;-80
2021/08/29 05:24:56;;;;;;;6.87;1.67;;;;;;;10.69;100.00;95853.72;5031618;28;20423;-80
2021/08/29 05:27:21;;;;;;;2.47;1.83;;;;;;;10.78;100.00;95852.31;5031906;28;20489;-80
2021/08/29 05:29:48;;;;;;;1.50;1.40;;;;;;;10.73;100.00;95841.41;5032350;28;20438;-80
2021/08/29 05:32:13;;;;;;;2.13;1.67;;;;;;;10.71;100.00;95851.84;5032112;28;20414;-80
2021/08/29 05:34:39;;;;;;;1.90;1.70;;;;;;;10.71;100.00;95851.84;5031923;28;20845;-80
2021/08/29 05:37:04;;;;;;;1.60;1.50;;;;;;;10.82;100.00;95852.03;5032244;28;20868;-80
2021/08/29 05:39:29;;;;;;;1.50;1.40;;;;;;;10.88;100.00;95858.59;5033992;28;20415;-81
2021/08/29 05:41:55;;;;;;;1.53;1.43;;;;;;;10.94;100.00;95849.59;5033169;28;20422;-81
2021/08/29 05:44:20;;;;;;;1.87;1.63;;;;;;;10.90;100.00;95856.72;5032003;28;20423;-82
2021/08/29 05:46:47;;;;;;;1.50;1.40;;;;;;;11.03;100.00;95859.38;5031545;28;20443;-81
2021/08/29 05:49:13;;;;;;;1.40;1.30;;;;;;;11.06;100.00;95854.84;5032259;28;20419;-81
2021/08/29 05:51:38;;;;;;;1.70;1.60;;;;;;;11.03;100.00;95857.63;5031697;28;20427;-81
2021/08/29 05:54:03;;;;;;;1.90;1.70;;;;;;;11.08;100.00;95849.56;5031544;28;20987;-82
2021/08/29 05:56:29;;;;;;;1.48;1.38;;;;;;;11.10;100.00;95852.88;5031239;28;20411;-81
2021/08/29 05:58:54;;;;;;;1.75;1.60;;;;;;;10.98;100.00;95859.69;5031451;28;20949;-81
2021/08/29 06:01:20;;;;;;;1.70;1.45;;;;;;;11.07;100.00;95863.44;5032990;28;20897;-81
2021/08/29 06:03:47;;;;;;;1.60;1.50;;;;;;;11.08;100.00;95857.31;5031548;28;20425;-81
2021/08/29 06:06:12;;;;;;;1.70;1.60;;;;;;;11.15;100.00;95850.81;5031063;28;20412;-81
2021/08/29 06:08:38;;;;;;;1.90;1.67;;;;;;;11.19;100.00;95847.09;5032954;28;20465;-81
2021/08/29 06:11:07;;;;;;;2.37;1.50;;;;;;;11.24;100.00;95850.25;5033119;28;20530;-81
2021/08/29 06:13:33;;;;;;;1.90;1.20;;;;;;;11.29;100.00;95845.59;5031404;28;20425;-81
2021/08/29 06:15:59;;;;;;;1.40;1.27;;;;;;;11.21;100.00;95844.44;5032111;28;20423;-81
2021/08/29 06:18:24;;;;;;;1.60;1.30;;;;;;;11.26;100.00;95843.19;5033082;28;20454;-81
2021/08/29 06:20:51;;;;;;;1.30;1.20;;;;;;;11.35;100.00;95840.03;5031346;28;20422;-81
2021/08/29 06:23:16;;;;;;;0.95;0.85;;;;;;;11.44;100.00;95841.19;5031367;28;20476;-81
2021/08/29 06:25:42;;;;;;;0.90;0.70;;;;;;;11.51;100.00;95836.44;5032290;28;20414;-81
2021/08/29 06:28:07;;;;;;;0.60;0.60;;;;;;;11.46;100.00;95838.47;5031176;28;20422;-81
2021/08/29 06:30:33;;;;;;;0.85;0.70;;;;;;;11.47;100.00;95837.56;5031587;28;20508;-81
2021/08/29 06:32:58;;;;;;;0.60;0.50;;;;;;;11.49;100.00;95838.28;5031522;28;20423;-81
2021/08/29 06:35:24;;;;;;;0.80;0.70;;;;;;;11.55;100.00;95830.09;5031594;28;20422;-81
2021/08/29 06:37:50;;;;;;;1.00;0.60;;;;;;;11.54;100.00;95829.28;5031748;28;20427;-81
2021/08/29 06:40:16;;;;;;;0.50;0.40;;;;;;;11.58;100.00;95832.50;5033095;28;20477;-81
2021/08/29 06:42:42;;;;;;;0.65;0.50;;;;;;;11.56;100.00;95842.97;5043764;28;20840;-81
2021/08/29 06:45:08;;;;;;;0.33;0.33;;;;;;;11.66;100.00;95838.00;5044968;28;20426;-82
2021/08/29 06:47:33;;;;;;;0.40;0.38;;;;;;;11.67;100.00;95834.47;5037235;28;20426;-81
2021/08/29 06:49:58;;;;;;;0.73;0.40;;;;;;;11.66;100.00;95832.00;5045718;28;20987;-82
2021/08/29 06:52:24;;;;;;;0.47;0.40;;;;;;;11.63;100.00;95836.44;5035936;28;20430;-82
2021/08/29 06:54:51;;;;;;;0.57;0.30;;;;;;;11.61;100.00;95833.13;5034905;28;21008;-82
2021/08/29 06:57:16;;;;;;;0.57;0.40;;;;;;;11.66;100.00;95830.22;5034149;28;20513;-82
2021/08/29 06:59:42;;;;;;;0.47;0.47;;;;;;;11.56;100.00;95830.00;5034488;28;20453;-81
2021/08/29 07:02:07;;;;;;;0.73;0.50;;;;;;;11.60;100.00;95836.63;5034129;28;20472;-83
2021/08/29 07:04:32;;;;;;;0.33;0.30;;;;;;;11.68;100.00;95832.72;5034697;28;20415;-81
2021/08/29 07:06:58;;;;;;;0.50;0.30;;;;;;;11.69;100.00;95837.00;5033272;28;20559;-81
2021/08/29 07:09:24;;;;;;;0.50;0.30;;;;;;;11.67;100.00;95837.06;5033281;28;20415;-81
2021/08/29 07:11:51;;;;;;;1.50;0.30;;;;;;;11.70;100.00;95836.06;5034393;28;20415;-81
2021/08/29 07:14:16;;;;;;;0.45;0.30;;;;;;;11.75;100.00;95833.97;5034187;28;20415;-81
2021/08/29 07:16:41;;;;;;;1.47;0.40;;;;;;;11.72;100.00;95837.63;5032438;28;20492;-81
2021/08/29 07:19:07;;;;;;;0.32;0.32;;;;;;;11.68;100.00;95838.75;5034447;28;20431;-81
2021/08/29 07:21:32;;;;;;;0.52;0.43;;;;;;;11.76;100.00;95838.25;5032578;28;20419;-82
2021/08/29 07:23:58;;;;;;;0.50;0.40;;;;;;;11.80;100.00;95840.53;5033830;28;20465;-81
2021/08/29 07:26:23;;;;;;;0.43;0.40;;;;;;;11.73;100.00;95838.44;5033362;28;20419;-81
2021/08/29 07:28:51;;;;;;;0.60;0.50;;;;;;;11.78;100.00;95839.78;5034185;28;20916;-81
2021/08/29 07:31:16;;;;;;;1.90;0.50;;;;;;;11.82;100.00;95840.41;5032086;28;20481;-81
2021/08/29 07:33:42;;;;;;;0.75;0.57;;;;;;;11.83;100.00;95839.50;5033357;28;20419;-81
2021/08/29 07:36:07;;;;;;;0.52;0.52;;;;;;;11.89;100.00;95835.69;5035488;28;20905;-81
2021/08/29 07:38:33;;;;;;;0.60;0.60;;;;;;;11.92;100.00;95841.50;5035970;28;20855;-81
2021/08/29 07:40:59;;;;;;;1.00;0.63;;;;;;;11.86;100.00;95834.97;5036692;28;20423;-81
2021/08/29 07:43:24;;;;;;;1.50;0.75;;;;;;;11.91;100.00;95839.84;5037022;28;20477;-81
2021/08/29 07:45:51;;;;;;;0.55;0.50;;;;;;;12.02;100.00;95841.72;5034897;28;20506;-81
2021/08/29 07:48:16;;;;;;;0.60;0.60;;;;;;;12.07;100.00;95850.84;5035357;28;20418;-81
2021/08/29 07:50:42;;;;;;;0.60;0.60;;;;;;;12.16;100.00;95845.97;5035018;28;20780;-81
2021/08/29 07:53:07;;;;;;;1.00;0.70;;;;;;;12.25;100.00;95848.78;5035345;28;20418;-81
2021/08/29 07:55:33;;;;;;;0.77;0.40;;;;;;;12.23;100.00;95842.84;5034784;28;20996;-81
2021/08/29 07:57:59;;;;;;;0.70;0.43;;;;;;;12.23;100.00;95855.81;5036493;28;20463;-81
2021/08/29 08:00:25;;;;;;;0.40;0.40;;;;;;;12.30;100.00;95846.69;5034886;28;20418;-81
2021/08/29 08:02:52;;;;;;;1.00;0.60;;;;;;;12.27;100.00;95846.91;5034936;28;20777;-82
2021/08/29 08:05:17;;;;;;;0.65;0.35;;;;;;;12.34;100.00;95855.09;5035681;28;20423;-81
2021/08/29 08:07:43;;;;;;;0.70;0.50;;;;;;;12.23;100.00;95850.63;5044406;28;20441;-81
2021/08/29 08:10:09;;;;;;;0.60;0.50;;;;;;;12.23;100.00;95853.22;5041339;28;20422;-81
2021/08/29 08:12:35;;;;;;;1.30;0.65;;;;;;;12.25;100.00;95856.56;5039221;28;20450;-81
2021/08/29 08:15:01;;;;;;;1.10;0.50;;;;;;;12.35;100.00;95852.41;5033403;28;20423;-81
2021/08/29 08:17:26;;;;;;;0.80;0.47;;;;;;;12.33;100.00;95859.47;5032470;28;20509;-81
2021/08/29 08:19:53;;;;;;;0.60;0.50;;;;;;;12.43;100.00;95858.84;5032557;28;20561;-81
2021/08/29 08:22:18;;;;;;;0.57;0.40;;;;;;;12.52;100.00;95860.81;5033302;28;20636;-81
2021/08/29 08:24:44;;;;;;;0.73;0.50;;;;;;;12.43;100.00;95861.44;5033148;28;20498;-81
2021/08/29 08:27:09;;;;;;;0.50;0.50;;;;;;;12.32;100.00;95869.97;5032968;28;20546;-81
2021/08/29 08:29:35;;;;;;;1.17;0.90;;;;;;;12.31;100.00;95869.16;5034240;28;20419;-81
2021/08/29 08:32:00;;;;;;;0.95;0.85;;;;;;;12.31;100.00;95863.09;5034483;28;20423;-81
2021/08/29 08:34:25;;;;;;;0.93;0.87;;;;;;;12.27;100.00;95862.50;5036042;28;20411;-81
2021/08/29 08:36:52;;;;;;;1.50;0.90;;;;;;;12.25;100.00;95864.34;5033655;28;20999;-81
2021/08/29 08:39:18;;;;;;;1.10;1.00;;;;;;;12.23;100.00;95863.63;5034067;28;20484;-81
2021/08/29 08:41:43;;;;;;;1.50;0.90;;;;;;;12.37;100.00;95867.88;5034202;28;20506;-81
2021/08/29 08:44:08;;;;;;;1.30;0.93;;;;;;;12.30;100.00;95872.66;5042910;28;20576;-81
2021/08/29 08:46:34;;;;;;;0.65;0.65;;;;;;;12.34;100.00;95871.50;5042577;28;20426;-82
2021/08/29 08:49:01;;;;;;;1.63;0.80;;;;;;;12.40;100.00;95872.88;5036264;28;20420;-82
2021/08/29 08:51:29;;;;;;;1.25;0.70;;;;;;;12.47;100.00;95868.94;5036688;28;20431;-82
2021/08/29 08:54:01;;;;;;;0.68;0.68;;;;;;;12.33;100.00;95875.06;5037593;28;20854;-82
2021/08/29 08:56:27;;;;;;;0.68;0.68;;;;;;;12.39;100.00;95870.41;5035980;28;20506;-82
2021/08/29 08:58:57;;;;;;;1.52;0.70;;;;;;;12.31;100.00;95876.09;5035639;28;20755;-82
2021/08/29 09:01:22;;;;;;;2.00;0.82;;;;;;;12.45;100.00;95877.75;5035708;28;20781;-82
2021/08/29 09:03:48;;;;;;;1.10;0.90;;;;;;;12.53;100.00;95868.50;5035737;28;20435;-82
2021/08/29 09:06:13;;;;;;;2.20;0.90;;;;;;;12.39;100.00;95870.41;5035293;28;20423;-82
2021/08/29 09:08:39;;;;;;;1.30;1.20;;;;;;;12.47;100.00;95875.88;5034773;28;20466;-83
2021/08/29 09:11:06;;;;;;;1.30;1.10;;;;;;;12.41;100.00;95874.53;5034157;28;20419;-83
2021/08/29 09:13:53;;;;;;;0.70;0.70;;;;;;;12.49;100.00;95872.22;5034188;28;20936;-82
2021/08/29 09:16:21;;;;;;;0.63;0.60;;;;;;;12.32;100.00;95878.59;5033238;28;20510;-82
2021/08/29 09:18:47;;;;;;;1.63;1.20;;;;;;;12.32;100.00;95868.22;5035273;28;20784;-82
2021/08/29 09:21:18;;;;;;;1.17;0.90;;;;;;;12.32;100.00;95873.41;5033525;28;20506;-82
2021/08/29 09:23:43;;;;;;;0.90;0.80;;;;;;;12.57;100.00;95869.97;5033750;28;20413;-82
2021/08/29 09:26:11;;;;;;;2.17;1.98;;;;;;;12.71;100.00;95868.97;5036679;28;20502;-82
2021/08/29 09:28:38;;;;;;;1.45;1.20;;;;;;;12.75;100.00;95867.00;5040768;28;20454;-82
2021/08/29 09:31:03;;;;;;;1.42;1.00;;;;;;;12.90;100.00;95859.91;5037953;28;20419;-83
2021/08/29 09:33:31;;;;;;;1.87;1.67;;;;;;;12.86;100.00;95863.66;5047801;28;20451;-82
2021/08/29 09:35:57;;;;;;;5.93;5.10;;;;;;;13.14;100.00;95865.13;5039695;28;20414;-83
2021/08/29 09:38:23;;;;;;;1.90;1.70;;;;;;;13.25;100.00;95873.88;5035819;28;20529;-82
2021/08/29 09:40:49;;;;;;;1.60;1.00;;;;;;;13.11;100.00;95862.75;5035709;28;20419;-83
2021/08/29 09:43:15;;;;;;;2.70;2.50;;;;;;;12.99;100.00;95864.47;5035669;28;20944;-82
2021/08/29 09:45:43;;;;;;;1.40;1.30;;;;;;;13.13;100.00;95860.88;5034719;28;20446;-83
2021/08/29 09:48:10;;;;;;;2.47;1.77;;;;;;;13.26;100.00;95865.09;5034656;28;20422;-82
2021/08/29 09:50:37;;;;;;;2.97;1.92;;;;;;;13.42;100.00;95856.19;5036485;28;20421;-83
2021/08/29 09:53:04;;;;;;;3.28;2.63;;;;;;;13.24;100.00;95863.59;5033779;28;20466;-82
2021/08/29 09:55:33;;;;;;;2.33;2.13;;;;;;;13.04;100.00;95862.34;5035808;28;20421;-82
2021/08/29 09:57:58;;;;;;;6.13;5.40;;;;;;;13.15;100.00;95866.78;5033335;28;20944;-82
2021/08/29 10:00:25;;;;;;;4.88;4.47;;;;;;;13.21;100.00;95862.00;5033606;28;20423;-82
2021/08/29 10:03:02;;;;;;;7.15;3.83;;;;;;;12.92;100.00;95871.84;5033278;28;20429;-82
2021/08/29 10:05:28;;;;;;;7.95;6.38;;;;;;;13.03;100.00;95865.91;5033102;28;20522;-82
2021/08/29 10:08:00;;;;;;;7.27;5.57;;;;;;;13.13;100.00;95868.69;5033002;28;20996;-82
2021/08/29 10:10:28;;;;;;;14.95;9.90;;;;;;;12.77;100.00;95868.56;5033321;28;20415;-82
2021/08/29 10:12:55;;;;;;;10.00;7.60;;;;;;;12.74;100.00;95871.38;5034109;28;20418;-82
2021/08/29 10:15:21;;;;;;;9.32;5.10;;;;;;;12.67;100.00;95874.50;5032254;28;20431;-82
2021/08/29 10:17:50;;;;;;;10.10;7.73;;;;;;;12.70;100.00;95875.13;5033949;28;20561;-82
2021/08/29 10:20:20;;;;;;;5.18;4.35;;;;;;;12.57;100.00;95872.56;5033810;28;20777;-82
2021/08/29 10:22:47;;;;;;;3.63;3.33;;;;;;;12.67;100.00;95877.09;5031885;28;20510;-82
2021/08/29 10:25:15;;;;;;;3.80;3.27;;;;;;;12.62;100.00;95876.59;5031863;28;20891;-82
2021/08/29 10:27:44;;;;;;;4.60;3.97;;;;;;;12.57;100.00;95872.56;5032387;28;20419;-82
2021/08/29 10:30:12;;;;;;;3.20;2.95;;;;;;;12.46;100.00;95869.00;5031754;28;20419;-82
2021/08/29 10:32:42;;;;;;;3.25;2.67;;;;;;;12.44;100.00;95870.91;5033249;28;20426;-82
2021/08/29 10:35:10;;;;;;;2.50;2.30;;;;;;;12.57;100.00;95874.31;5031984;28;20841;-82
2021/08/29 10:37:39;;;;;;;2.83;2.50;;;;;;;12.56;100.00;95872.66;5030637;28;21535;-82
2021/08/29 10:40:06;;;;;;;2.93;2.63;;;;;;;12.45;100.00;95868.19;5032632;28;20423;-82
2021/08/29 10:42:34;;;;;;;2.80;2.50;;;;;;;12.54;100.00;95869.34;5033071;28;20464;-82
2021/08/29 10:45:00;;;;;;;2.58;2.28;;;;;;;12.52;100.00;95874.63;5031471;28;20429;-82
2021/08/29 10:47:26;;;;;;;2.15;1.95;;;;;;;12.52;100.00;95866.00;5032284;28;20410;-82
2021/08/29 10:49:52;;;;;;;3.13;2.20;;;;;;;12.58;100.00;95868.19;5031308;28;20450;-82
2021/08/29 10:52:20;;;;;;;3.13;2.17;;;;;;;12.61;100.00;95870.56;5031519;28;20431;-82
2021/08/29 10:54:55;;;;;;;3.67;2.15;;;;;;;12.68;100.00;95871.81;5031488;28;20828;-82
2021/08/29 10:57:29;;;;;;;2.10;1.90;;;;;;;12.63;100.00;95868.69;5031367;28;20477;-82
2021/08/29 11:00:07;;;;;;;3.20;1.90;;;;;;;12.71;100.00;95873.34;5035351;28;20430;-82
2021/08/29 11:02:39;;;;;;;2.97;2.00;;;;;;;12.71;100.00;95878.53;5034445;28;20521;-82
2021/08/29 11:05:05;;;;;;;2.20;2.00;;;;;;;12.84;100.00;95874.16;5032467;28;20431;-82
2021/08/29 11:07:51;;;;;;;2.75;1.80;;;;;;;12.94;100.00;95872.59;5032154;28;20431;-82
2021/08/29 11:10:45;;;;;;;2.85;1.85;;;;;;;12.87;100.00;95870.50;5030595;28;20423;-82
2021/08/29 11:13:38;;;;;;;2.10;1.90;;;;;;;13.02;100.00;95875.47;5034580;28;20867;-82
2021/08/29 11:16:16;;;;;;;2.00;1.80;;;;;;;12.98;100.00;95874.03;5037013;28;20473;-82
2021/08/29 11:19:09;;;;;;;3.25;2.28;;;;;;;12.99;100.00;95864.47;5032904;28;20431;-82
2021/08/29 11:22:13;;;;;;;2.22;1.83;;;;;;;13.00;100.00;95871.31;5030601;28;20508;-82
2021/08/29 11:24:51;;;;;;;1.80;1.58;;;;;;;13.10;100.00;95863.69;5031018;28;20442;-82